Church Hill, Maryland
Current Conditions -  °F | °C
As of 1:50 PM on Wednesday 26 Nov 2014 (Local Time) from KAPG Reporting Station
Light Snow Light Snow  
Wind Chill: 32°   Ceiling: 700
Heat Index: 36°   Visibility: 1mi
Dew Point: 36°   Wind: 5mph
Humidity: 100%   Direction: 10°N
Pressure: 29.87"   Gusts: NA
Location:  39.14°N, 75.99°W
Report Text: KAPG 261850Z 01004KT 1SM -RA-SN BR BKN007 OVC012 02/02 A2987 RMK PRESFR
Loading
Personal Weather Stations






























Interactive Weather Map New forecast layout! Learn more

10-Day Weather Forecast

Advertisements
Track Severe Weather on mobile